Time;durP1;ratioP1;P1;durP2;ratioP2;P2;SDS_P1;SDS_P2;PMS_P1;PMS_P2;Temp;Humidity;BMP_temperature;BMP_pressure;BME280_temperature;BME280_humidity;BME280_pressure;Samples;Min_cycle;Max_cycle;Signal;HPM_P1;HPM_P2
2022/07/13 00:00:03;;;;;;;8.88;2.95;;;;;;;;;;5028878;28;20057;-74
2022/07/13 00:02:29;;;;;;;8.05;2.78;;;;;;;;;;5030304;28;20029;-74
2022/07/13 00:04:55;;;;;;;8.32;2.78;;;;;;;;;;5031102;28;20025;-73
2022/07/13 00:07:21;;;;;;;6.00;2.60;;;;;;;;;;5030515;28;20037;-74
2022/07/13 00:09:47;;;;;;;5.15;2.78;;;;;;;;;;5028810;28;20025;-74
2022/07/13 00:12:13;;;;;;;11.05;3.28;;;;;;;;;;5029894;28;20519;-75
2022/07/13 00:14:39;;;;;;;7.72;3.40;;;;;;;;;;5029633;28;20026;-74
2022/07/13 00:17:05;;;;;;;5.65;2.40;;;;;;;;;;5024262;28;20124;-75
2022/07/13 00:19:31;;;;;;;7.55;2.80;;;;;;;;;;5019092;28;20040;-74
2022/07/13 00:21:57;;;;;;;9.90;2.83;;;;;;;;;;5027911;28;20575;-75
2022/07/13 00:24:23;;;;;;;7.97;3.45;;;;;;;;;;5027647;28;20036;-74
2022/07/13 00:26:49;;;;;;;7.97;2.70;;;;;;;;;;5024830;28;20028;-73
2022/07/13 00:29:16;;;;;;;7.22;2.97;;;;;;;;;;5027265;28;20875;-74
2022/07/13 00:31:42;;;;;;;11.32;3.38;;;;;;;;;;5028728;28;20083;-74
2022/07/13 00:34:08;;;;;;;12.23;3.80;;;;;;;;;;5023353;28;20105;-74
2022/07/13 00:36:35;;;;;;;7.72;2.92;;;;;;;;;;5024080;28;20033;-74
2022/07/13 00:39:01;;;;;;;7.55;3.13;;;;;;;;;;5028606;28;20043;-75
2022/07/13 00:41:27;;;;;;;6.03;2.70;;;;;;;;;;5029497;28;20037;-75
2022/07/13 00:43:53;;;;;;;10.48;2.90;;;;;;;;;;5028847;28;20394;-73
2022/07/13 00:46:20;;;;;;;11.70;3.03;;;;;;;;;;5027097;28;20025;-74
2022/07/13 00:48:46;;;;;;;11.35;3.47;;;;;;;;;;5028091;28;20018;-74
2022/07/13 00:51:12;;;;;;;8.57;3.20;;;;;;;;;;5028066;28;20382;-74
2022/07/13 00:53:39;;;;;;;7.13;2.60;;;;;;;;;;5028108;28;20017;-74
2022/07/13 00:56:06;;;;;;;9.73;2.83;;;;;;;;;;5028407;28;20545;-74
2022/07/13 00:58:32;;;;;;;7.20;3.13;;;;;;;;;;5028942;28;20096;-74
2022/07/13 01:00:59;;;;;;;9.88;2.90;;;;;;;;;;5027105;28;20052;-74
2022/07/13 01:03:25;;;;;;;8.13;2.75;;;;;;;;;;5024819;28;20364;-74
2022/07/13 01:05:54;;;;;;;6.25;2.88;;;;;;;;;;5024636;28;20079;-74
2022/07/13 01:08:21;;;;;;;5.25;2.80;;;;;;;;;;5020393;28;20022;-74
2022/07/13 01:10:48;;;;;;;7.78;2.90;;;;;;;;;;5030284;28;20029;-74
2022/07/13 01:13:16;;;;;;;6.03;2.47;;;;;;;;;;5018741;28;20471;-73
2022/07/13 01:15:42;;;;;;;7.38;2.92;;;;;;;;;;5018444;28;20026;-74
2022/07/13 01:18:11;;;;;;;7.82;2.63;;;;;;;;;;5026393;28;20032;-75
2022/07/13 01:20:37;;;;;;;6.97;2.90;;;;;;;;;;5026698;28;20021;-74
2022/07/13 01:23:09;;;;;;;6.88;2.92;;;;;;;;;;5029282;28;20056;-74
2022/07/13 01:25:36;;;;;;;8.52;3.00;;;;;;;;;;5026780;28;20108;-74
2022/07/13 01:28:02;;;;;;;8.15;2.55;;;;;;;;;;5027797;28;20403;-74
2022/07/13 01:30:28;;;;;;;5.72;2.90;;;;;;;;;;5017922;28;20387;-73
2022/07/13 01:32:54;;;;;;;8.80;2.88;;;;;;;;;;5027886;28;20548;-73
2022/07/13 01:35:21;;;;;;;11.05;2.65;;;;;;;;;;5026715;28;20052;-74
2022/07/13 01:37:47;;;;;;;7.82;2.80;;;;;;;;;;5030318;28;20013;-72
2022/07/13 01:40:14;;;;;;;4.70;2.60;;;;;;;;;;5025441;28;20025;-73
2022/07/13 01:42:43;;;;;;;9.35;3.22;;;;;;;;;;5028132;28;20506;-73
2022/07/13 01:45:10;;;;;;;8.18;3.20;;;;;;;;;;5028115;28;20483;-73
2022/07/13 01:47:40;;;;;;;10.30;3.33;;;;;;;;;;5021711;28;20471;-73
2022/07/13 01:50:08;;;;;;;7.38;3.03;;;;;;;;;;5026240;28;20097;-73
2022/07/13 01:52:35;;;;;;;5.70;2.60;;;;;;;;;;5026208;28;20021;-73
2022/07/13 01:55:02;;;;;;;4.00;2.38;;;;;;;;;;5028938;28;20163;-74
2022/07/13 01:57:28;;;;;;;8.98;2.58;;;;;;;;;;5028614;28;20190;-73
2022/07/13 01:59:58;;;;;;;4.45;2.60;;;;;;;;;;5020615;28;20025;-74
2022/07/13 02:02:24;;;;;;;4.93;3.00;;;;;;;;;;5027878;28;20031;-73
2022/07/13 02:04:50;;;;;;;7.28;2.75;;;;;;;;;;5027527;28;20498;-73
2022/07/13 02:07:16;;;;;;;4.53;2.33;;;;;;;;;;5029076;28;20229;-74
2022/07/13 02:09:42;;;;;;;4.65;2.50;;;;;;;;;;5027822;28;20061;-74
2022/07/13 02:12:08;;;;;;;7.72;2.47;;;;;;;;;;5027048;28;20022;-73
2022/07/13 02:14:34;;;;;;;9.20;3.58;;;;;;;;;;5026159;28;20117;-75
2022/07/13 02:17:00;;;;;;;4.72;2.97;;;;;;;;;;5028627;28;20036;-74
2022/07/13 02:19:26;;;;;;;5.35;2.95;;;;;;;;;;5028121;28;20029;-74
2022/07/13 02:21:52;;;;;;;5.40;2.67;;;;;;;;;;5016946;28;20503;-74
2022/07/13 02:24:18;;;;;;;5.95;2.30;;;;;;;;;;5025841;28;20550;-73
2022/07/13 02:26:44;;;;;;;4.97;2.25;;;;;;;;;;5026906;28;20017;-73
2022/07/13 02:29:10;;;;;;;5.47;3.00;;;;;;;;;;5026927;28;20025;-74
2022/07/13 02:31:36;;;;;;;5.38;2.30;;;;;;;;;;5027888;28;20048;-75
2022/07/13 02:34:03;;;;;;;5.53;2.67;;;;;;;;;;5028292;28;20021;-74
2022/07/13 02:36:29;;;;;;;9.30;2.60;;;;;;;;;;5027960;28;20017;-75
2022/07/13 02:38:55;;;;;;;5.78;2.20;;;;;;;;;;5027238;28;20032;-75
2022/07/13 02:41:21;;;;;;;2.63;2.03;;;;;;;;;;5028679;28;20426;-74
2022/07/13 02:43:47;;;;;;;5.43;2.30;;;;;;;;;;5032412;28;20068;-74
2022/07/13 02:46:14;;;;;;;5.25;2.38;;;;;;;;;;5031326;28;20055;-74
2022/07/13 02:48:40;;;;;;;3.10;2.30;;;;;;;;;;5025376;28;20025;-75
2022/07/13 02:51:06;;;;;;;5.13;2.30;;;;;;;;;;5030133;28;20092;-74
2022/07/13 02:53:32;;;;;;;3.80;2.10;;;;;;;;;;5028041;28;20519;-74
2022/07/13 02:55:58;;;;;;;6.28;2.67;;;;;;;;;;5030863;28;20411;-74
2022/07/13 02:58:25;;;;;;;6.07;2.30;;;;;;;;;;5028822;28;20030;-74
2022/07/13 03:00:51;;;;;;;7.43;2.75;;;;;;;;;;5021159;28;20325;-74
2022/07/13 03:03:17;;;;;;;8.95;2.78;;;;;;;;;;5021739;28;20029;-75
2022/07/13 03:05:43;;;;;;;5.93;2.63;;;;;;;;;;5023520;28;20431;-74
2022/07/13 03:08:09;;;;;;;5.93;2.30;;;;;;;;;;5027367;28;20179;-74
2022/07/13 03:10:35;;;;;;;3.80;2.20;;;;;;;;;;5024134;28;20063;-74
2022/07/13 03:13:02;;;;;;;3.92;2.35;;;;;;;;;;5027388;28;20036;-74
2022/07/13 03:15:28;;;;;;;5.78;2.50;;;;;;;;;;5026973;28;20072;-74
2022/07/13 03:17:54;;;;;;;5.97;3.20;;;;;;;;;;5030543;28;20025;-74
2022/07/13 03:20:20;;;;;;;4.03;2.20;;;;;;;;;;5028379;28;20025;-74
2022/07/13 03:22:49;;;;;;;5.57;2.53;;;;;;;;;;5024301;28;20025;-74
2022/07/13 03:25:15;;;;;;;5.57;2.20;;;;;;;;;;5027758;28;20032;-74
2022/07/13 03:27:41;;;;;;;3.05;2.28;;;;;;;;;;5026256;28;20441;-74
2022/07/13 03:30:07;;;;;;;2.65;2.13;;;;;;;;;;5023166;28;20022;-73
2022/07/13 03:32:33;;;;;;;3.25;2.58;;;;;;;;;;5027300;28;20018;-74
2022/07/13 03:35:00;;;;;;;6.78;2.55;;;;;;;;;;5031563;28;20048;-73
2022/07/13 03:37:26;;;;;;;6.15;2.17;;;;;;;;;;5030210;28;20037;-73
2022/07/13 03:39:52;;;;;;;3.75;2.05;;;;;;;;;;5033412;28;20384;-74
2022/07/13 03:42:18;;;;;;;7.65;2.50;;;;;;;;;;5026363;28;20107;-73
2022/07/13 03:44:44;;;;;;;7.07;3.15;;;;;;;;;;5024681;28;20033;-74
2022/07/13 03:47:10;;;;;;;6.78;2.83;;;;;;;;;;5023088;28;20225;-74
2022/07/13 03:49:36;;;;;;;5.28;2.30;;;;;;;;;;5025149;28;20105;-75
2022/07/13 03:52:02;;;;;;;7.47;2.30;;;;;;;;;;5024534;28;20021;-74
2022/07/13 03:54:29;;;;;;;5.60;2.13;;;;;;;;;;5027159;28;20018;-74
2022/07/13 03:56:55;;;;;;;2.90;2.20;;;;;;;;;;5030666;28;20021;-73
2022/07/13 03:59:21;;;;;;;5.82;2.45;;;;;;;;;;5028850;28;20037;-74
2022/07/13 04:01:47;;;;;;;5.13;3.08;;;;;;;;;;5028812;28;20429;-74
2022/07/13 04:04:13;;;;;;;3.85;2.35;;;;;;;;;;5030270;28;20279;-74
2022/07/13 04:06:39;;;;;;;7.70;2.33;;;;;;;;;;5029541;28;20360;-74
2022/07/13 04:09:05;;;;;;;7.25;2.40;;;;;;;;;;5024465;28;20037;-75
2022/07/13 04:11:31;;;;;;;6.78;2.60;;;;;;;;;;5024759;28;20033;-75
2022/07/13 04:13:57;;;;;;;3.85;2.30;;;;;;;;;;5028434;28;20438;-74
2022/07/13 04:16:23;;;;;;;3.30;2.28;;;;;;;;;;5027820;28;20028;-74
2022/07/13 04:18:49;;;;;;;4.97;2.50;;;;;;;;;;5027209;28;20078;-73
2022/07/13 04:21:16;;;;;;;3.47;2.15;;;;;;;;;;5028153;28;20033;-74
2022/07/13 04:23:42;;;;;;;4.15;2.40;;;;;;;;;;5025965;28;20033;-74
2022/07/13 04:26:08;;;;;;;6.22;2.20;;;;;;;;;;5031021;28;20026;-75
2022/07/13 04:28:34;;;;;;;6.35;2.40;;;;;;;;;;5025506;28;20085;-74
2022/07/13 04:31:00;;;;;;;8.20;2.95;;;;;;;;;;5026218;28;20116;-74
2022/07/13 04:33:27;;;;;;;3.92;3.13;;;;;;;;;;5026350;28;20010;-75
2022/07/13 04:35:53;;;;;;;5.63;2.63;;;;;;;;;;5029105;28;20026;-75
2022/07/13 04:38:19;;;;;;;5.30;2.60;;;;;;;;;;5027786;28;20033;-73
2022/07/13 04:40:46;;;;;;;7.63;2.88;;;;;;;;;;5026616;28;20484;-73
2022/07/13 04:43:12;;;;;;;5.13;2.60;;;;;;;;;;5028115;28;20029;-73
2022/07/13 04:45:38;;;;;;;8.77;2.72;;;;;;;;;;5029884;28;20033;-74
2022/07/13 04:48:05;;;;;;;4.93;2.75;;;;;;;;;;5027754;28;20104;-75
2022/07/13 04:50:31;;;;;;;4.72;2.42;;;;;;;;;;5024814;28;20104;-74
2022/07/13 04:52:57;;;;;;;3.80;2.45;;;;;;;;;;5027276;28;20028;-74
2022/07/13 04:55:23;;;;;;;7.30;2.65;;;;;;;;;;5027563;28;20040;-74
2022/07/13 04:57:49;;;;;;;5.32;3.13;;;;;;;;;;5027865;28;20052;-74
2022/07/13 05:00:16;;;;;;;6.68;2.55;;;;;;;;;;5026311;28;20041;-75
2022/07/13 05:02:42;;;;;;;5.65;3.25;;;;;;;;;;5025886;28;20032;-74
2022/07/13 05:05:09;;;;;;;4.32;2.20;;;;;;;;;;5026841;28;20021;-74
2022/07/13 05:07:35;;;;;;;3.75;2.30;;;;;;;;;;5026855;28;20068;-75
2022/07/13 05:10:01;;;;;;;4.50;2.80;;;;;;;;;;5025920;28;20026;-73
2022/07/13 05:12:27;;;;;;;4.68;2.90;;;;;;;;;;5026551;28;20036;-73
2022/07/13 05:14:53;;;;;;;9.40;3.80;;;;;;;;;;5025778;28;20025;-73
2022/07/13 05:17:19;;;;;;;8.02;3.00;;;;;;;;;;5024839;28;20029;-74
2022/07/13 05:19:45;;;;;;;5.50;3.00;;;;;;;;;;5026742;28;20733;-74
2022/07/13 05:22:11;;;;;;;5.00;2.88;;;;;;;;;;5028433;28;20036;-74
2022/07/13 05:24:43;;;;;;;5.88;2.95;;;;;;;;;;5029038;28;20025;-74
2022/07/13 05:27:09;;;;;;;9.48;2.60;;;;;;;;;;5021089;28;20514;-74
2022/07/13 05:29:35;;;;;;;5.95;3.70;;;;;;;;;;5021745;28;20510;-75
2022/07/13 05:32:01;;;;;;;4.93;2.92;;;;;;;;;;5028151;28;20029;-75
2022/07/13 05:34:27;;;;;;;3.55;2.40;;;;;;;;;;5022668;28;20059;-73
2022/07/13 05:36:55;;;;;;;6.35;2.60;;;;;;;;;;5022603;28;20032;-73
2022/07/13 05:39:21;;;;;;;5.47;2.33;;;;;;;;;;5030064;28;20037;-73
2022/07/13 05:41:47;;;;;;;4.90;2.40;;;;;;;;;;5027814;28;20029;-74
2022/07/13 05:44:13;;;;;;;2.95;2.40;;;;;;;;;;5026548;28;20368;-74
2022/07/13 05:46:39;;;;;;;3.50;2.85;;;;;;;;;;5023365;28;20014;-74
2022/07/13 05:49:05;;;;;;;4.00;2.28;;;;;;;;;;5027505;28;20053;-74
2022/07/13 05:51:31;;;;;;;7.00;2.85;;;;;;;;;;5026917;28;20073;-73
2022/07/13 05:53:57;;;;;;;5.65;2.50;;;;;;;;;;5029056;28;20128;-74
2022/07/13 05:56:23;;;;;;;4.68;2.60;;;;;;;;;;5025048;28;20332;-74
2022/07/13 05:58:50;;;;;;;4.60;2.30;;;;;;;;;;5023491;28;20098;-75
2022/07/13 06:01:16;;;;;;;3.90;2.40;;;;;;;;;;5022992;28;20871;-74
2022/07/13 06:03:42;;;;;;;4.57;2.30;;;;;;;;;;5024146;28;20253;-74
2022/07/13 06:06:08;;;;;;;5.05;2.72;;;;;;;;;;5025134;28;20075;-73
2022/07/13 06:08:34;;;;;;;4.40;2.47;;;;;;;;;;5028486;28;20115;-74
2022/07/13 06:11:00;;;;;;;5.20;2.47;;;;;;;;;;5019702;28;20029;-74
2022/07/13 06:13:26;;;;;;;2.90;2.60;;;;;;;;;;5021467;28;21029;-73
2022/07/13 06:15:52;;;;;;;3.50;2.38;;;;;;;;;;5025579;28;20048;-73
2022/07/13 06:18:18;;;;;;;4.32;2.00;;;;;;;;;;5024467;28;20034;-74
2022/07/13 06:20:44;;;;;;;5.10;2.10;;;;;;;;;;5028345;28;20060;-73
2022/07/13 06:23:11;;;;;;;3.08;2.17;;;;;;;;;;5032032;28;20030;-73
2022/07/13 06:25:40;;;;;;;2.47;2.10;;;;;;;;;;5030750;28;20104;-75
2022/07/13 06:28:06;;;;;;;3.17;2.25;;;;;;;;;;5030899;28;20046;-74
2022/07/13 06:30:33;;;;;;;3.92;1.98;;;;;;;;;;5027450;28;20021;-74
2022/07/13 06:32:59;;;;;;;4.13;2.08;;;;;;;;;;5029677;28;20409;-74
2022/07/13 06:35:25;;;;;;;4.60;2.00;;;;;;;;;;5025481;28;20475;-73
2022/07/13 06:37:51;;;;;;;6.80;2.10;;;;;;;;;;5027880;28;20048;-74
2022/07/13 06:40:17;;;;;;;3.20;2.22;;;;;;;;;;5030871;28;20446;-74
2022/07/13 06:42:44;;;;;;;4.28;3.03;;;;;;;;;;5027770;28;20033;-74
2022/07/13 06:45:10;;;;;;;3.15;2.20;;;;;;;;;;5025299;28;20040;-75
2022/07/13 06:47:37;;;;;;;4.47;2.03;;;;;;;;;;5026898;28;20029;-75
2022/07/13 06:50:03;;;;;;;3.13;1.95;;;;;;;;;;5025852;28;20029;-75
2022/07/13 06:52:29;;;;;;;4.45;2.17;;;;;;;;;;5019496;28;20040;-74
2022/07/13 06:54:55;;;;;;;3.35;2.03;;;;;;;;;;5032755;28;20029;-74
2022/07/13 06:57:21;;;;;;;3.28;2.08;;;;;;;;;;5028210;28;20382;-74
2022/07/13 06:59:47;;;;;;;5.28;2.40;;;;;;;;;;5025787;28;20025;-74
2022/07/13 07:02:13;;;;;;;5.35;2.53;;;;;;;;;;5030392;28;20540;-74
2022/07/13 07:04:39;;;;;;;6.43;2.00;;;;;;;;;;5029828;28;20057;-73
2022/07/13 07:07:05;;;;;;;4.43;1.95;;;;;;;;;;5031025;28;20037;-73
2022/07/13 07:09:32;;;;;;;4.22;2.10;;;;;;;;;;5030102;28;20034;-74
2022/07/13 07:11:58;;;;;;;2.67;1.83;;;;;;;;;;5028034;28;20029;-73
2022/07/13 07:14:24;;;;;;;4.38;2.10;;;;;;;;;;5027350;28;20060;-74
2022/07/13 07:16:51;;;;;;;4.03;1.90;;;;;;;;;;5029295;28;20032;-73
2022/07/13 07:19:17;;;;;;;2.15;1.90;;;;;;;;;;5025168;28;20096;-74
2022/07/13 07:21:43;;;;;;;3.85;2.10;;;;;;;;;;5029874;28;20045;-73
2022/07/13 07:24:09;;;;;;;5.13;2.40;;;;;;;;;;5026737;28;20033;-73
2022/07/13 07:26:36;;;;;;;4.13;2.05;;;;;;;;;;5029019;28;20087;-73
2022/07/13 07:29:02;;;;;;;2.55;1.80;;;;;;;;;;5027877;28;20449;-73
2022/07/13 07:31:28;;;;;;;2.38;1.75;;;;;;;;;;5032429;28;20059;-73
2022/07/13 07:33:54;;;;;;;3.90;1.98;;;;;;;;;;5024461;28;20163;-73
2022/07/13 07:36:21;;;;;;;3.97;2.20;;;;;;;;;;5030384;28;20502;-73
2022/07/13 07:38:47;;;;;;;2.15;1.85;;;;;;;;;;5026438;28;20046;-73
2022/07/13 07:41:13;;;;;;;4.07;2.05;;;;;;;;;;5032646;28;20029;-74
2022/07/13 07:43:40;;;;;;;5.20;1.85;;;;;;;;;;5025950;28;20471;-74
2022/07/13 07:46:06;;;;;;;4.65;2.00;;;;;;;;;;5030497;28;20044;-74
2022/07/13 07:48:32;;;;;;;4.28;1.80;;;;;;;;;;5028584;28;20100;-74
2022/07/13 07:50:58;;;;;;;3.70;1.83;;;;;;;;;;5019945;28;20173;-74
2022/07/13 07:53:25;;;;;;;4.18;1.80;;;;;;;;;;5009617;28;20034;-74
2022/07/13 07:55:51;;;;;;;4.22;1.67;;;;;;;;;;5030111;28;20032;-74
2022/07/13 07:58:17;;;;;;;4.40;1.90;;;;;;;;;;5026833;28;20187;-74
2022/07/13 08:00:44;;;;;;;2.42;1.60;;;;;;;;;;5030018;28;20026;-74
2022/07/13 08:03:10;;;;;;;2.13;1.73;;;;;;;;;;5025484;28;20033;-74
2022/07/13 08:05:37;;;;;;;4.25;1.52;;;;;;;;;;5030022;28;20025;-73
2022/07/13 08:08:04;;;;;;;2.25;1.75;;;;;;;;;;5027136;28;20010;-74
2022/07/13 08:10:30;;;;;;;3.38;1.75;;;;;;;;;;5027849;28;20463;-74
2022/07/13 08:12:58;;;;;;;2.30;1.67;;;;;;;;;;5026831;28;20018;-74
2022/07/13 08:15:24;;;;;;;3.05;1.70;;;;;;;;;;5028084;28;20541;-74
2022/07/13 08:17:50;;;;;;;3.45;1.80;;;;;;;;;;5023083;28;20021;-74
2022/07/13 08:20:16;;;;;;;2.22;1.67;;;;;;;;;;5028357;28;20045;-74
2022/07/13 08:22:42;;;;;;;3.60;2.08;;;;;;;;;;5024188;28;20526;-74
2022/07/13 08:25:08;;;;;;;2.17;1.73;;;;;;;;;;5021854;28;20091;-74
2022/07/13 08:27:34;;;;;;;4.53;1.63;;;;;;;;;;5026242;28;20062;-74
2022/07/13 08:30:00;;;;;;;3.20;1.70;;;;;;;;;;5022068;28;20030;-74
2022/07/13 08:32:27;;;;;;;2.13;1.63;;;;;;;;;;5028120;28;20022;-74
2022/07/13 08:40:23;;;;;;;3.83;2.75;;;;;;;;;;5028929;28;20391;-75
2022/07/13 08:42:49;;;;;;;3.95;1.75;;;;;;;;;;5028282;28;20053;-73
2022/07/13 08:45:15;;;;;;;3.63;1.67;;;;;;;;;;5026614;28;20021;-74
2022/07/13 08:47:42;;;;;;;2.17;1.80;;;;;;;;;;5013346;28;20726;-75
2022/07/13 08:50:09;;;;;;;2.55;1.77;;;;;;;;;;5028770;28;20051;-75
2022/07/13 08:52:36;;;;;;;3.28;1.63;;;;;;;;;;5025260;28;20025;-74
2022/07/13 08:55:06;;;;;;;3.35;1.77;;;;;;;;;;5027764;28;20048;-75
2022/07/13 08:57:41;;;;;;;2.63;1.60;;;;;;;;;;5028252;28;20095;-75
2022/07/13 09:00:08;;;;;;;;;;;;;;;;;;5027174;28;20025;-74
2022/07/13 09:02:34;;;;;;;2.17;1.85;;;;;;;;;;5028806;28;19940;-74
2022/07/13 09:05:07;;;;;;;1.60;1.50;;;;;;;;;;5025844;28;20029;-74
2022/07/13 09:07:36;;;;;;;2.53;1.83;;;;;;;;;;5023522;28;20022;-74
2022/07/13 09:10:02;;;;;;;2.33;1.50;;;;;;;;;;5027444;28;20065;-75
2022/07/13 09:12:29;;;;;;;1.83;1.58;;;;;;;;;;5027759;28;20056;-74
2022/07/13 09:14:56;;;;;;;4.38;2.03;;;;;;;;;;5027997;28;20028;-74
2022/07/13 09:17:33;;;;;;;4.13;1.70;;;;;;;;;;5019733;28;20029;-74
2022/07/13 09:20:03;;;;;;;3.10;1.52;;;;;;;;;;5012388;28;20072;-75
2022/07/13 09:22:29;;;;;;;2.40;1.50;;;;;;;;;;5026513;28;20026;-76
2022/07/13 09:24:55;;;;;;;1.98;1.60;;;;;;;;;;5021718;28;20026;-75
2022/07/13 09:27:22;;;;;;;2.30;1.67;;;;;;;;;;5026121;28;20561;-75
2022/07/13 09:29:49;;;;;;;3.00;1.67;;;;;;;;;;5018570;28;20248;-74
2022/07/13 09:32:15;;;;;;;1.60;1.50;;;;;;;;;;5020343;28;20117;-74
2022/07/13 09:34:54;;;;;;;1.98;1.70;;;;;;;;;;5027361;28;20021;-74
2022/07/13 09:37:24;;;;;;;2.78;1.83;;;;;;;;;;5025769;28;20501;-74
2022/07/13 09:40:00;;;;;;;1.70;1.60;;;;;;;;;;5026978;28;20036;-74
2022/07/13 09:42:32;;;;;;;2.10;1.70;;;;;;;;;;5029932;28;21320;-73
2022/07/13 09:47:49;;;;;;;2.17;1.90;;;;;;;;;;5027427;28;20032;-75
2022/07/13 09:50:17;;;;;;;2.88;1.90;;;;;;;;;;5020928;28;20041;-75
2022/07/13 09:52:44;;;;;;;5.18;1.92;;;;;;;;;;5021954;28;20021;-76
2022/07/13 09:55:12;;;;;;;5.55;2.35;;;;;;;;;;5023244;28;20112;-74
2022/07/13 09:57:46;;;;;;;2.10;1.70;;;;;;;;;;5026030;28;20029;-74
2022/07/13 10:00:17;;;;;;;3.30;2.47;;;;;;;;;;5024513;28;20053;-75
2022/07/13 10:02:44;;;;;;;4.13;2.40;;;;;;;;;;5022301;28;20026;-75
2022/07/13 10:05:11;;;;;;;3.25;1.98;;;;;;;;;;5020340;28;20033;-74
2022/07/13 10:07:37;;;;;;;2.85;1.90;;;;;;;;;;5022838;28;20018;-75
2022/07/13 10:10:08;;;;;;;1.58;1.48;;;;;;;;;;5017087;28;20021;-77
2022/07/13 10:12:38;;;;;;;4.10;1.95;;;;;;;;;;5020430;28;20025;-76
2022/07/13 10:15:04;;;;;;;2.53;1.75;;;;;;;;;;5021696;28;20483;-76
2022/07/13 10:17:31;;;;;;;2.85;1.90;;;;;;;;;;5021119;28;20133;-74
2022/07/13 10:19:59;;;;;;;3.85;1.70;;;;;;;;;;5019499;28;20148;-77
2022/07/13 10:22:28;;;;;;;3.47;1.88;;;;;;;;;;5020770;28;20048;-77
2022/07/13 10:24:55;;;;;;;1.70;1.60;;;;;;;;;;5019344;28;20033;-76
2022/07/13 10:27:31;;;;;;;4.10;2.05;;;;;;;;;;5031359;28;20093;-76
2022/07/13 10:30:03;;;;;;;1.88;1.70;;;;;;;;;;5022815;28;20068;-77
2022/07/13 10:32:30;;;;;;;2.00;1.80;;;;;;;;;;5020976;28;20025;-78
2022/07/13 10:35:10;;;;;;;2.65;1.80;;;;;;;;;;5021801;28;20032;-76
2022/07/13 10:37:55;;;;;;;2.30;1.77;;;;;;;;;;5020042;28;20586;-76
2022/07/13 10:40:22;;;;;;;2.70;1.70;;;;;;;;;;5022613;28;20033;-74
2022/07/13 10:42:57;;;;;;;5.05;1.70;;;;;;;;;;5027657;28;20037;-77
2022/07/13 10:45:42;;;;;;;5.32;2.42;;;;;;;;;;5021543;28;20026;-78
2022/07/13 10:48:34;;;;;;;1.65;1.55;;;;;;;;;;5022615;28;20475;-77
2022/07/13 10:51:02;;;;;;;1.70;1.60;;;;;;;;;;5013765;28;20037;-76
2022/07/13 10:53:38;;;;;;;1.70;1.60;;;;;;;;;;5020471;28;20056;-77
2022/07/13 10:56:15;;;;;;;2.22;1.63;;;;;;;;;;5030632;28;20489;-76
2022/07/13 10:58:42;;;;;;;2.00;1.42;;;;;;;;;;5021894;28;20025;-76
2022/07/13 11:01:27;;;;;;;2.38;1.83;;;;;;;;;;5023029;28;20022;-76
2022/07/13 11:03:53;;;;;;;3.28;1.75;;;;;;;;;;5023832;28;20037;-76
2022/07/13 11:06:26;;;;;;;3.58;1.80;;;;;;;;;;5029638;28;20115;-76
2022/07/13 11:09:07;;;;;;;3.90;2.80;;;;;;;;;;5022888;28;20046;-75
2022/07/13 11:11:33;;;;;;;4.95;1.80;;;;;;;;;;5022962;28;20036;-74
2022/07/13 11:13:59;;;;;;;2.95;1.67;;;;;;;;;;5017872;28;20171;-76
2022/07/13 11:16:44;;;;;;;6.80;1.95;;;;;;;;;;5022637;28;20033;-73
2022/07/13 11:19:10;;;;;;;1.92;1.50;;;;;;;;;;5020337;28;20029;-76
2022/07/13 11:21:56;;;;;;;4.03;1.88;;;;;;;;;;5020736;28;20033;-76
2022/07/13 11:27:12;;;;;;;2.58;1.90;;;;;;;;;;5020759;28;20076;-73
2022/07/13 11:29:53;;;;;;;1.60;1.50;;;;;;;;;;5021188;28;20018;-74
2022/07/13 11:32:22;;;;;;;4.18;1.88;;;;;;;;;;5020211;28;20104;-75
2022/07/13 11:34:48;;;;;;;1.90;1.75;;;;;;;;;;5020232;28;20025;-75
2022/07/13 11:37:14;;;;;;;5.07;1.98;;;;;;;;;;5020841;28;20078;-74
2022/07/13 11:39:40;;;;;;;2.65;1.88;;;;;;;;;;5019070;28;20032;-75
2022/07/13 11:42:07;;;;;;;2.15;1.75;;;;;;;;;;5022260;28;20511;-76
2022/07/13 11:44:34;;;;;;;4.95;1.80;;;;;;;;;;5023394;28;20147;-75
2022/07/13 11:47:08;;;;;;;4.05;1.90;;;;;;;;;;5024067;28;20026;-74
2022/07/13 11:49:43;;;;;;;3.85;1.92;;;;;;;;;;5025403;28;20499;-75
2022/07/13 11:52:18;;;;;;;1.70;1.60;;;;;;;;;;5019260;28;20032;-74
2022/07/13 11:54:54;;;;;;;2.25;1.88;;;;;;;;;;5022164;28;20032;-75
2022/07/13 11:57:20;;;;;;;2.40;1.80;;;;;;;;;;5021960;28;20064;-76
2022/07/13 11:59:46;;;;;;;3.65;2.00;;;;;;;;;;5019474;28;20499;-75
2022/07/13 12:02:14;;;;;;;3.88;1.95;;;;;;;;;;5024071;28;20063;-77
2022/07/13 12:04:44;;;;;;;3.75;2.08;;;;;;;;;;5021267;28;20476;-77
2022/07/13 12:07:16;;;;;;;4.53;2.00;;;;;;;;;;5020718;28;20507;-77
2022/07/13 12:09:50;;;;;;;2.25;1.77;;;;;;;;;;5018004;28;20037;-78
2022/07/13 12:12:17;;;;;;;2.95;1.80;;;;;;;;;;5022201;28;20057;-77
2022/07/13 12:14:43;;;;;;;3.88;1.70;;;;;;;;;;5022187;28;20029;-77
2022/07/13 12:17:10;;;;;;;2.00;1.80;;;;;;;;;;5023306;28;20032;-76
2022/07/13 12:19:36;;;;;;;3.33;1.77;;;;;;;;;;5018129;28;20029;-77
2022/07/13 12:22:02;;;;;;;2.10;1.80;;;;;;;;;;5019266;28;21062;-77
2022/07/13 12:24:29;;;;;;;3.25;1.60;;;;;;;;;;5023045;28;20028;-77
2022/07/13 12:26:55;;;;;;;3.60;2.22;;;;;;;;;;5018254;28;20025;-78
2022/07/13 12:29:27;;;;;;;2.60;1.85;;;;;;;;;;5019725;28;20025;-76
2022/07/13 12:32:02;;;;;;;3.08;1.90;;;;;;;;;;5022018;28;20021;-76
2022/07/13 12:34:28;;;;;;;;;;;;;;;;;;5022843;28;20057;-77
2022/07/13 12:36:54;;;;;;;3.97;1.95;;;;;;;;;;5018714;28;20283;-76
2022/07/13 12:39:39;;;;;;;3.92;1.90;;;;;;;;;;5019040;28;20507;-77
2022/07/13 12:42:05;;;;;;;;;;;;;;;;;;5016234;28;20149;-79
2022/07/13 12:44:32;;;;;;;2.38;1.77;;;;;;;;;;5019330;28;20817;-77
2022/07/13 12:47:00;;;;;;;2.10;1.88;;;;;;;;;;5019543;28;20037;-77
2022/07/13 12:49:35;;;;;;;2.53;1.63;;;;;;;;;;5019144;28;20025;-76
2022/07/13 12:52:05;;;;;;;3.75;1.80;;;;;;;;;;5017899;28;20076;-76
2022/07/13 12:54:48;;;;;;;4.15;2.10;;;;;;;;;;5019315;28;20021;-76
2022/07/13 12:57:16;;;;;;;2.05;1.70;;;;;;;;;;5018123;28;20026;-76
2022/07/13 12:59:57;;;;;;;3.53;1.75;;;;;;;;;;5018605;28;20029;-76
2022/07/13 13:02:23;;;;;;;3.20;2.40;;;;;;;;;;5015630;28;20348;-78
2022/07/13 13:04:49;;;;;;;3.30;1.98;;;;;;;;;;5018739;28;20037;-74
2022/07/13 13:07:15;;;;;;;2.50;1.80;;;;;;;;;;5021942;28;20025;-75
2022/07/13 13:09:41;;;;;;;2.88;2.28;;;;;;;;;;5020433;28;20029;-77
2022/07/13 13:12:07;;;;;;;3.85;1.80;;;;;;;;;;5019400;28;20025;-75
2022/07/13 13:14:33;;;;;;;4.75;2.15;;;;;;;;;;5018663;28;20040;-76
2022/07/13 13:16:59;;;;;;;2.78;2.03;;;;;;;;;;5017217;28;20121;-75
2022/07/13 13:19:25;;;;;;;2.13;1.80;;;;;;;;;;5020594;28;20510;-75
2022/07/13 13:21:51;;;;;;;2.28;1.80;;;;;;;;;;5020321;28;20033;-77
2022/07/13 13:24:18;;;;;;;2.65;2.13;;;;;;;;;;5016940;28;20324;-76
2022/07/13 13:26:44;;;;;;;3.15;1.80;;;;;;;;;;5016311;28;20566;-77
2022/07/13 13:31:56;;;;;;;2.53;1.67;;;;;;;;;;5020464;28;20036;-77
2022/07/13 13:34:22;;;;;;;2.70;2.05;;;;;;;;;;5020342;28;20514;-77
2022/07/13 13:36:51;;;;;;;4.22;2.13;;;;;;;;;;5021181;28;20291;-73
2022/07/13 13:39:20;;;;;;;2.10;1.70;;;;;;;;;;5019133;28;20053;-74
2022/07/13 13:41:47;;;;;;;2.85;1.80;;;;;;;;;;5021262;28;20100;-73
2022/07/13 13:44:13;;;;;;;2.78;1.80;;;;;;;;;;5018817;28;20037;-74
2022/07/13 13:46:39;;;;;;;2.88;1.88;;;;;;;;;;5018723;28;20045;-74
2022/07/13 13:49:06;;;;;;;3.38;2.10;;;;;;;;;;5016018;28;20112;-74
2022/07/13 13:51:32;;;;;;;2.47;1.80;;;;;;;;;;5019368;28;20036;-74
2022/07/13 13:53:58;;;;;;;3.03;1.90;;;;;;;;;;5020609;28;20025;-75
2022/07/13 13:56:25;;;;;;;4.97;1.80;;;;;;;;;;5017751;28;20103;-76
2022/07/13 13:58:51;;;;;;;2.60;1.95;;;;;;;;;;5024521;28;20036;-77
2022/07/13 14:01:17;;;;;;;3.58;2.10;;;;;;;;;;5020770;28;20029;-76
2022/07/13 14:03:44;;;;;;;3.47;1.60;;;;;;;;;;5020971;28;20034;-76
2022/07/13 14:06:14;;;;;;;3.17;1.90;;;;;;;;;;5021195;28;20061;-75
2022/07/13 14:08:43;;;;;;;4.22;2.30;;;;;;;;;;5019991;28;20026;-75
2022/07/13 14:11:11;;;;;;;2.28;1.70;;;;;;;;;;5015341;28;20031;-77
2022/07/13 14:13:37;;;;;;;2.05;1.65;;;;;;;;;;5018145;28;20017;-76
2022/07/13 14:16:03;;;;;;;3.00;1.80;;;;;;;;;;5019215;28;20051;-73
2022/07/13 14:18:31;;;;;;;7.70;2.05;;;;;;;;;;5022563;28;20105;-72
2022/07/13 14:20:58;;;;;;;3.85;2.03;;;;;;;;;;5024214;28;20494;-75
2022/07/13 14:23:24;;;;;;;1.83;1.70;;;;;;;;;;5018789;28;20087;-74
2022/07/13 14:25:50;;;;;;;4.13;1.70;;;;;;;;;;5016537;28;20487;-73
2022/07/13 14:28:16;;;;;;;1.88;1.70;;;;;;;;;;5018565;28;20049;-76
2022/07/13 14:30:43;;;;;;;2.60;1.70;;;;;;;;;;5019002;28;20056;-75
2022/07/13 14:33:14;;;;;;;3.88;1.80;;;;;;;;;;5025484;28;20037;-74
2022/07/13 14:35:44;;;;;;;1.95;1.40;;;;;;;;;;5021864;28;20084;-77
2022/07/13 14:38:14;;;;;;;1.65;1.42;;;;;;;;;;5023138;28;20040;-77
2022/07/13 14:40:41;;;;;;;1.40;1.30;;;;;;;;;;5022100;28;20043;-77
2022/07/13 14:43:07;;;;;;;2.05;1.50;;;;;;;;;;5024541;28;20025;-77
2022/07/13 14:45:34;;;;;;;1.48;1.38;;;;;;;;;;5021502;28;20030;-77
2022/07/13 14:48:02;;;;;;;2.97;1.70;;;;;;;;;;5021737;28;20641;-76
2022/07/13 14:50:28;;;;;;;1.95;1.80;;;;;;;;;;5022390;28;20028;-76
2022/07/13 14:52:54;;;;;;;4.00;1.92;;;;;;;;;;5024207;28;20139;-76
2022/07/13 14:55:20;;;;;;;2.33;1.73;;;;;;;;;;5022256;28;20378;-78
2022/07/13 14:57:47;;;;;;;3.10;2.03;;;;;;;;;;5024785;28;20017;-77